SBJP/JPA METAR and TAF weather

Enter ICAO airport designator
Station Type Date Time Source
SBJP METAR 2019/07/17 19:00 UTC NOAA

SBJP 171900Z 18014KT 9999 FEW025 27/21 Q1015


Station Type Date Time Source
SBJP Decoded METAR 2019/07/17 19:00 UTC NOAA

Joao Pessoa, Brazil (SBJP) 07-06S 034-52W
Jul 17, 2019 - 03:00 PM EDT / 2019.07.17 1900 UTC
Wind: from the S (180 degrees) at 16 MPH (14 KT):0
Visibility: greater than 7 mile(s):0
Sky conditions: mostly clear
Temperature: 80 F (27 C)
Dew Point: 69 F (21 C)
Relative Humidity: 69%
Pressure (altimeter): 29.97 in. Hg (1015 hPa)
ob: SBJP 171900Z 18014KT 9999 FEW025 27/21 Q1015
cycle: 19

Station Type Date Time Source
SBJP TAF 2019/07/17 18:59 UTC NOAA

TAF SBJP 171600Z 1718/1818 16015KT 9999 SCT030 TN20/1807Z TX28/1817Z
BECMG 1721/1722 20005KT CAVOK
BECMG 1807/1808 24008KT 9999 SCT020
BECMG 18 11/1812 17010KT SCT020
RMK PFM

Example: see airport list